createdAt,value
2023-02-14T08:05:57.345Z,90.80
2023-02-14T08:08:30.684Z,90.90
2023-02-14T08:10:59.138Z,90.80
2023-02-14T08:13:26.713Z,90.70
2023-02-14T08:16:06.392Z,90.60
2023-02-14T08:18:41.953Z,90.50
2023-02-14T08:21:11.510Z,90.30
2023-02-14T08:23:39.222Z,90.20
2023-02-14T08:26:06.634Z,90.10
2023-02-14T08:28:34.929Z,89.90
2023-02-14T08:31:04.601Z,89.90
2023-02-14T08:33:32.134Z,89.60
2023-02-14T08:36:00.211Z,89.40
2023-02-14T08:38:27.540Z,89.10
2023-02-14T08:41:00.070Z,88.60
2023-02-14T08:43:27.521Z,88.70
2023-02-14T08:45:54.908Z,88.30
2023-02-14T08:48:23.593Z,88.00
2023-02-14T08:50:50.966Z,88.20
2023-02-14T08:53:18.470Z,87.80
2023-02-14T08:55:45.822Z,87.60
2023-02-14T08:58:13.188Z,87.40
2023-02-14T09:00:41.034Z,86.80
2023-02-14T09:03:08.714Z,86.70
2023-02-14T09:05:36.054Z,86.50
2023-02-14T09:08:03.979Z,86.10
2023-02-14T09:10:31.572Z,85.40
2023-02-14T09:12:58.865Z,84.60
2023-02-14T09:15:26.183Z,84.40
2023-02-14T09:17:53.580Z,84.00
2023-02-14T09:20:21.212Z,83.70
2023-02-14T09:22:48.960Z,82.80
2023-02-14T09:25:17.508Z,81.90
2023-02-14T09:27:44.826Z,82.00
2023-02-14T09:30:13.520Z,81.40
2023-02-14T09:32:40.873Z,80.90
2023-02-14T09:35:08.510Z,79.80
2023-02-14T09:37:54.339Z,79.70
2023-02-14T09:40:21.988Z,78.60
2023-02-14T09:43:49.009Z,78.10
2023-02-14T09:46:18.834Z,77.80
2023-02-14T09:48:49.482Z,76.90
2023-02-14T09:51:27.760Z,76.20
2023-02-14T09:54:16.058Z,75.70
2023-02-14T09:57:25.283Z,75.00
2023-02-14T10:00:17.264Z,74.20
2023-02-14T10:03:12.090Z,74.20
2023-02-14T10:05:59.771Z,73.30
2023-02-14T10:09:26.652Z,72.90
2023-02-14T10:11:57.877Z,71.50
2023-02-14T10:14:36.510Z,71.30
2023-02-14T10:17:23.369Z,70.90
2023-02-14T10:20:01.163Z,70.40
2023-02-14T10:22:45.249Z,69.80
2023-02-14T10:25:32.460Z,68.50
2023-02-14T10:28:02.620Z,68.70
2023-02-14T10:30:44.042Z,66.90
2023-02-14T10:33:22.801Z,67.10
2023-02-14T10:36:33.150Z,66.30
2023-02-14T10:39:50.249Z,66.30
2023-02-14T10:43:15.351Z,65.50
2023-02-14T10:46:10.451Z,66.00
2023-02-14T10:49:58.239Z,64.30
2023-02-14T10:53:37.405Z,63.90
2023-02-14T10:57:04.194Z,63.50
2023-02-14T11:00:06.771Z,62.60
2023-02-14T11:02:46.895Z,61.80
2023-02-14T11:05:47.588Z,61.40
2023-02-14T11:08:40.312Z,60.60
2023-02-14T11:11:53.455Z,60.40
2023-02-14T11:14:25.076Z,59.40
2023-02-14T11:16:54.773Z,59.10
2023-02-14T11:19:24.942Z,59.50
2023-02-14T11:21:56.717Z,58.60
2023-02-14T11:24:35.793Z,59.50
2023-02-14T11:27:19.363Z,57.90
2023-02-14T11:29:52.366Z,57.50
2023-02-14T11:32:31.174Z,58.40
2023-02-14T11:35:13.850Z,56.70
2023-02-14T11:37:57.264Z,56.10
2023-02-14T11:40:39.702Z,55.90
2023-02-14T11:43:15.683Z,55.50
2023-02-14T11:45:47.717Z,55.80
2023-02-14T11:48:37.812Z,55.00
2023-02-14T11:51:15.693Z,54.50
2023-02-14T11:54:00.632Z,54.70
2023-02-14T11:57:13.813Z,54.50
2023-02-14T11:59:57.012Z,53.00
2023-02-14T12:02:48.979Z,53.30
2023-02-14T12:05:48.702Z,53.60
2023-02-14T12:08:23.909Z,53.50
2023-02-14T12:11:23.878Z,52.20
2023-02-14T12:13:58.348Z,52.00
2023-02-14T12:17:02.982Z,52.20
2023-02-14T12:20:16.666Z,52.40
2023-02-14T12:23:30.032Z,51.40
2023-02-14T12:26:14.016Z,50.80
2023-02-14T12:28:54.533Z,50.90
2023-02-14T12:31:22.058Z,50.50
2023-02-14T12:33:50.584Z,50.80
2023-02-14T12:37:02.131Z,50.50
2023-02-14T12:40:16.164Z,50.30
2023-02-14T12:43:51.494Z,49.90
2023-02-14T12:47:14.938Z,49.50
2023-02-14T12:50:16.656Z,49.20
2023-02-14T12:53:40.049Z,49.00
2023-02-14T12:56:50.165Z,48.70
2023-02-14T13:00:00.047Z,48.80
2023-02-14T13:03:15.528Z,48.70
2023-02-14T13:06:03.535Z,48.00
2023-02-14T13:09:13.492Z,48.10
2023-02-14T13:12:13.922Z,47.60
2023-02-14T13:15:35.644Z,47.70
2023-02-14T13:18:57.921Z,47.80
2023-02-14T13:21:35.521Z,47.70
2023-02-14T13:24:38.167Z,47.60
2023-02-14T13:27:16.160Z,46.70
2023-02-14T13:29:59.792Z,47.30
2023-02-14T13:32:37.624Z,47.50
2023-02-14T13:35:07.777Z,48.10
2023-02-14T13:37:36.904Z,47.60
2023-02-14T13:40:20.487Z,48.60
2023-02-14T13:42:50.595Z,48.50
2023-02-14T13:45:34.845Z,48.90
2023-02-14T13:48:28.528Z,48.20
2023-02-14T13:51:09.019Z,48.90
2023-02-14T13:53:48.972Z,49.10
2023-02-14T13:56:16.059Z,49.60
2023-02-14T13:59:06.408Z,49.60
2023-02-14T14:01:50.632Z,49.80
2023-02-14T14:04:44.241Z,50.80
2023-02-14T14:07:30.748Z,50.70
2023-02-14T14:10:02.109Z,51.20
2023-02-14T14:12:29.803Z,51.50
2023-02-14T14:15:05.853Z,51.50
2023-02-14T14:17:50.582Z,51.40
2023-02-14T14:20:20.808Z,51.90
2023-02-14T14:22:58.823Z,52.80
2023-02-14T14:25:43.708Z,53.20
2023-02-14T14:28:18.634Z,54.30
2023-02-14T14:30:46.316Z,54.70
2023-02-14T14:33:33.987Z,54.70
2023-02-14T14:36:11.197Z,55.20
2023-02-14T14:38:54.240Z,55.60
2023-02-14T14:41:29.823Z,56.00
2023-02-14T14:43:59.804Z,56.60
2023-02-14T14:46:27.894Z,56.80
2023-02-14T14:48:57.089Z,57.00
2023-02-14T14:51:35.882Z,56.90
2023-02-14T14:54:12.756Z,57.10
2023-02-14T14:57:02.806Z,57.40
2023-02-14T14:59:36.249Z,57.80
2023-02-14T15:02:27.988Z,58.30
2023-02-14T15:04:55.338Z,58.60
2023-02-14T15:07:36.440Z,58.80
2023-02-14T15:10:24.521Z,59.10
2023-02-14T15:13:13.266Z,59.50
2023-02-14T15:15:41.188Z,59.60
2023-02-14T15:18:11.744Z,59.70
2023-02-14T15:20:40.663Z,59.90
2023-02-14T15:23:17.304Z,60.00
2023-02-14T15:25:47.349Z,60.40
2023-02-14T15:28:35.712Z,60.60
2023-02-14T15:31:07.012Z,60.90
2023-02-14T15:33:35.733Z,60.50
2023-02-14T15:36:15.447Z,61.00
2023-02-14T15:38:43.754Z,61.10
2023-02-14T15:41:13.926Z,61.50
2023-02-14T15:43:41.496Z,61.90
2023-02-14T15:46:29.367Z,61.80
2023-02-14T15:49:01.345Z,61.90
2023-02-14T15:51:36.400Z,61.60
2023-02-14T15:54:31.911Z,61.80
2023-02-14T15:56:59.801Z,62.00
2023-02-14T15:59:33.477Z,61.90
2023-02-14T16:02:37.845Z,61.50
2023-02-14T16:05:27.274Z,61.50
2023-02-14T16:08:35.896Z,61.60
2023-02-14T16:11:31.748Z,61.50
2023-02-14T16:14:19.382Z,61.50
2023-02-14T16:17:13.427Z,61.50
2023-02-14T16:19:45.114Z,61.30
2023-02-14T16:22:32.111Z,61.40
2023-02-14T16:25:00.567Z,61.50
2023-02-14T16:27:28.070Z,61.40
2023-02-14T16:29:55.460Z,61.20
2023-02-14T16:32:24.632Z,61.30
2023-02-14T16:34:52.153Z,61.70
2023-02-14T16:37:47.625Z,62.00
2023-02-14T16:40:16.856Z,62.50
2023-02-14T16:42:44.327Z,63.00
2023-02-14T16:45:18.877Z,63.30
2023-02-14T16:47:48.328Z,63.80
2023-02-14T16:50:17.694Z,64.30
2023-02-14T16:52:49.911Z,64.20
2023-02-14T16:55:20.148Z,64.90
2023-02-14T16:57:50.749Z,65.60
2023-02-14T17:00:18.276Z,65.80
2023-02-14T17:02:45.617Z,66.30
2023-02-14T17:05:13.534Z,66.20
2023-02-14T17:07:43.621Z,66.50
2023-02-14T17:10:19.493Z,66.40
2023-02-14T17:12:48.724Z,66.70
2023-02-14T17:15:21.532Z,66.40
2023-02-14T17:17:50.464Z,66.70
2023-02-14T17:20:20.233Z,66.90
2023-02-14T17:22:48.201Z,67.10
2023-02-14T17:25:15.561Z,67.00
2023-02-14T17:27:44.480Z,67.50
2023-02-14T17:30:15.375Z,68.10
2023-02-14T17:32:43.434Z,68.10
2023-02-14T17:35:11.961Z,68.10
2023-02-14T17:37:39.627Z,68.30
2023-02-14T17:40:09.142Z,68.60
2023-02-14T17:42:36.682Z,69.00
2023-02-14T17:45:06.753Z,68.90
2023-02-14T17:47:35.077Z,68.80
2023-02-14T17:50:03.957Z,69.00
2023-02-14T17:52:31.437Z,69.40
2023-02-14T17:54:58.758Z,69.30
2023-02-14T17:57:26.165Z,69.60
2023-02-14T17:59:53.701Z,69.80
2023-02-14T18:02:21.020Z,70.00
2023-02-14T18:04:48.493Z,69.80
2023-02-14T18:07:16.531Z,69.80
2023-02-14T18:09:43.844Z,70.50
2023-02-14T18:12:14.775Z,70.10
2023-02-14T18:14:42.870Z,70.50
2023-02-14T18:17:13.675Z,70.50
2023-02-14T18:19:41.050Z,70.70
2023-02-14T18:22:08.373Z,70.70
2023-02-14T18:24:36.736Z,71.10
2023-02-14T18:27:06.032Z,71.20
2023-02-14T18:29:35.118Z,71.20
2023-02-14T18:32:03.833Z,71.20
2023-02-14T18:34:31.766Z,71.20
2023-02-14T18:37:02.124Z,71.80
2023-02-14T18:39:29.445Z,71.90
2023-02-14T18:41:59.925Z,72.70
2023-02-14T18:44:30.456Z,72.30
2023-02-14T18:47:00.508Z,72.50
2023-02-14T18:49:27.987Z,72.70
2023-02-14T18:51:57.252Z,72.70
2023-02-14T18:54:24.788Z,72.80
2023-02-14T18:56:52.135Z,72.60
2023-02-14T18:59:19.579Z,72.50
2023-02-14T19:01:47.330Z,72.30
2023-02-14T19:04:17.056Z,72.40
2023-02-14T19:06:44.879Z,72.70
2023-02-14T19:09:17.174Z,72.30
2023-02-14T19:11:45.532Z,72.40
2023-02-14T19:14:13.446Z,72.60
2023-02-14T19:16:55.802Z,73.20
2023-02-14T19:19:23.318Z,73.30
2023-02-14T19:21:51.197Z,73.00
2023-02-14T19:24:19.823Z,73.20
2023-02-14T19:26:48.337Z,73.30
2023-02-14T19:29:20.356Z,73.10
2023-02-14T19:31:54.648Z,73.60
2023-02-14T19:34:29.583Z,74.30
2023-02-14T19:37:00.580Z,75.10
2023-02-14T19:39:30.761Z,74.90
2023-02-14T19:41:59.860Z,75.70
2023-02-14T19:44:29.164Z,76.10
2023-02-14T19:46:59.879Z,76.70
2023-02-14T19:49:29.090Z,76.80
2023-02-14T19:51:57.954Z,77.10
2023-02-14T19:54:25.709Z,77.20
2023-02-14T19:56:56.029Z,75.80
2023-02-14T19:59:23.497Z,75.10
2023-02-14T20:01:54.437Z,75.20
2023-02-14T20:04:28.456Z,75.20
2023-02-14T20:06:56.912Z,75.30
2023-02-14T20:09:25.625Z,75.30
2023-02-14T20:11:57.874Z,75.70
2023-02-14T20:14:50.190Z,76.70
2023-02-14T20:17:19.409Z,77.10
2023-02-14T20:19:46.777Z,77.70
2023-02-14T20:22:14.174Z,78.00
2023-02-14T20:24:41.578Z,78.40
2023-02-14T20:27:09.009Z,78.50
2023-02-14T20:29:38.891Z,79.30
2023-02-14T20:32:06.413Z,80.50
2023-02-14T20:34:33.879Z,81.50
2023-02-14T20:37:01.327Z,81.80
2023-02-14T20:39:35.043Z,82.30
2023-02-14T20:42:02.692Z,82.00
2023-02-14T20:44:30.951Z,82.00
2023-02-14T20:46:58.627Z,82.40
2023-02-14T20:49:30.746Z,82.60
2023-02-14T20:51:59.234Z,82.90
2023-02-14T20:54:29.385Z,83.00
2023-02-14T20:56:57.903Z,83.30
2023-02-14T20:59:28.829Z,83.40
2023-02-14T21:01:59.254Z,83.70
2023-02-14T21:04:27.161Z,83.70
2023-02-14T21:06:54.652Z,83.90
2023-02-14T21:09:21.973Z,83.10
2023-02-14T21:11:50.291Z,82.70
2023-02-14T21:14:17.818Z,83.50
2023-02-14T21:16:45.129Z,83.70
2023-02-14T21:19:12.488Z,83.70
